createdAt,value
2019-05-22T00:02:00.142Z,24.05
2019-05-22T00:04:38.245Z,21.75
2019-05-22T00:07:11.560Z,22.50
2019-05-22T00:09:50.144Z,24.00
2019-05-22T00:12:22.180Z,23.85
2019-05-22T00:14:56.497Z,22.42
2019-05-22T00:17:32.204Z,23.50
2019-05-22T00:20:06.602Z,22.90
2019-05-22T00:22:41.678Z,22.87
2019-05-22T00:25:20.895Z,25.20
2019-05-22T00:27:54.937Z,23.30
2019-05-22T00:30:28.980Z,23.83
2019-05-22T00:33:01.296Z,26.10
2019-05-22T00:35:34.525Z,26.15
2019-05-22T00:38:10.041Z,26.05
2019-05-22T00:40:51.702Z,24.12
2019-05-22T00:43:38.452Z,27.35
2019-05-22T00:46:12.708Z,24.73
2019-05-22T00:48:46.246Z,24.20
2019-05-22T00:51:31.474Z,26.27
2019-05-22T00:54:39.273Z,27.98
2019-05-22T00:57:29.740Z,26.15
2019-05-22T01:00:22.409Z,25.25
2019-05-22T01:02:56.174Z,26.68
2019-05-22T01:05:31.508Z,26.82
2019-05-22T01:08:06.814Z,25.95
2019-05-22T01:10:41.051Z,25.70
2019-05-22T01:13:14.835Z,26.82
2019-05-22T01:15:48.264Z,27.82
2019-05-22T01:18:22.051Z,29.20
2019-05-22T01:20:57.704Z,26.62
2019-05-22T01:23:33.347Z,26.37
2019-05-22T01:26:08.274Z,27.82
2019-05-22T01:28:43.875Z,29.95
2019-05-22T01:31:27.142Z,26.17
2019-05-22T01:34:10.645Z,27.67
2019-05-22T01:36:45.385Z,28.30
2019-05-22T01:39:37.035Z,29.42
2019-05-22T01:42:14.252Z,27.85
2019-05-22T01:44:59.735Z,27.25
2019-05-22T01:47:38.763Z,28.17
2019-05-22T01:50:18.456Z,28.85
2019-05-22T01:52:51.788Z,29.67
2019-05-22T01:55:24.875Z,28.75
2019-05-22T01:57:57.363Z,28.12
2019-05-22T02:00:32.342Z,27.50
2019-05-22T02:03:06.163Z,29.82
2019-05-22T02:05:38.491Z,30.20
2019-05-22T02:08:11.762Z,28.42
2019-05-22T02:10:45.973Z,29.52
2019-05-22T02:13:26.628Z,29.10
2019-05-22T02:15:58.785Z,27.27
2019-05-22T02:18:35.033Z,28.57
2019-05-22T02:21:07.579Z,28.95
2019-05-22T02:23:40.750Z,28.73
2019-05-22T02:26:13.607Z,29.12
2019-05-22T02:28:45.963Z,27.55
2019-05-22T02:34:15.005Z,27.95
2019-05-22T02:37:02.355Z,25.90
2019-05-22T02:39:47.727Z,28.10
2019-05-22T02:42:39.266Z,26.10
2019-05-22T02:45:24.499Z,26.40
2019-05-22T02:48:18.654Z,27.90
2019-05-22T02:51:02.712Z,27.93
2019-05-22T02:53:35.059Z,31.65
2019-05-22T02:56:18.780Z,29.45
2019-05-22T02:59:04.599Z,29.12
2019-05-22T03:01:49.696Z,28.12
2019-05-22T03:05:19.894Z,28.38
2019-05-22T03:08:04.330Z,27.82
2019-05-22T03:17:35.322Z,29.18
2019-05-22T03:20:26.796Z,29.50
2019-05-22T03:23:37.673Z,29.57
2019-05-22T03:26:58.990Z,27.50
2019-05-22T03:29:58.273Z,27.93
2019-05-22T03:32:44.664Z,29.30
2019-05-22T03:36:02.358Z,29.00
2019-05-22T03:38:47.351Z,26.17
2019-05-22T03:41:32.174Z,26.20
2019-05-22T03:47:28.489Z,27.27
2019-05-22T03:50:19.951Z,28.35
2019-05-22T03:53:10.285Z,27.10
2019-05-22T03:55:54.813Z,28.60
2019-05-22T04:01:32.148Z,27.85
2019-05-22T04:04:09.808Z,27.10
2019-05-22T04:06:54.869Z,28.55
2019-05-22T04:09:40.186Z,30.37
2019-05-22T04:12:31.592Z,27.80
2019-05-22T04:18:14.518Z,27.67
2019-05-22T04:20:58.975Z,27.15
2019-05-22T04:23:31.252Z,25.52
2019-05-22T04:26:17.026Z,27.65
2019-05-22T04:29:08.214Z,28.73
2019-05-22T04:38:19.402Z,26.73
2019-05-22T04:41:04.480Z,26.77
2019-05-22T04:44:16.767Z,25.60
2019-05-22T04:47:01.428Z,26.12
2019-05-22T04:49:33.687Z,26.45
2019-05-22T04:52:22.672Z,26.27
2019-05-22T04:54:55.119Z,27.07
2019-05-22T04:57:46.512Z,27.55
2019-05-22T05:00:20.461Z,27.60
2019-05-22T05:02:52.850Z,26.00
2019-05-22T05:08:48.696Z,25.32
2019-05-22T05:11:34.012Z,26.57
2019-05-22T05:14:17.873Z,27.45
2019-05-22T05:17:09.590Z,27.32
2019-05-22T05:19:53.584Z,27.30
2019-05-22T05:22:43.855Z,25.00
2019-05-22T05:25:28.342Z,25.92
2019-05-22T05:31:22.228Z,25.88
2019-05-22T05:34:11.810Z,26.42
2019-05-22T05:47:27.488Z,24.52
2019-05-22T05:58:00.621Z,24.82
2019-05-22T06:03:46.977Z,27.17
2019-05-22T06:07:16.778Z,27.77
2019-05-22T06:10:12.217Z,25.75
2019-05-22T06:16:34.673Z,24.35
2019-05-22T06:19:46.625Z,24.70
2019-05-22T06:22:30.957Z,25.08
2019-05-22T06:25:22.977Z,25.15
2019-05-22T06:28:07.073Z,23.10
2019-05-22T06:30:51.227Z,23.75
2019-05-22T06:33:38.946Z,24.27
2019-05-22T06:36:23.227Z,23.83
2019-05-22T06:42:24.803Z,22.60
2019-05-22T06:45:16.159Z,23.35
2019-05-22T06:47:48.428Z,22.90
2019-05-22T06:50:39.882Z,23.42
2019-05-22T06:53:23.642Z,23.47
2019-05-22T06:56:15.254Z,23.25
2019-05-22T06:58:59.410Z,22.77
2019-05-22T07:01:50.838Z,22.42
2019-05-22T07:04:23.307Z,24.47
2019-05-22T07:10:53.424Z,23.40
2019-05-22T07:16:43.544Z,23.10
2019-05-22T07:19:34.760Z,26.23
2019-05-22T07:22:18.957Z,26.23
2019-05-22T07:31:20.923Z,22.73
2019-05-22T07:34:05.420Z,23.47
2019-05-22T07:36:50.027Z,25.35
2019-05-22T07:39:42.265Z,24.12
2019-05-22T07:42:25.791Z,24.18
2019-05-22T07:48:34.973Z,23.25
2019-05-22T07:51:19.288Z,22.77
2019-05-22T07:54:12.151Z,22.52
2019-05-22T07:56:55.908Z,22.32
2019-05-22T07:59:48.241Z,22.75
2019-05-22T08:02:34.573Z,23.83
2019-05-22T08:05:26.555Z,22.55
2019-05-22T08:08:10.270Z,22.27
2019-05-22T08:10:54.602Z,21.87
2019-05-22T08:13:46.300Z,22.20
2019-05-22T08:16:30.302Z,21.90
2019-05-22T08:19:14.159Z,21.65
2019-05-22T08:25:11.912Z,22.93
2019-05-22T08:27:55.878Z,21.40
2019-05-22T08:30:40.061Z,18.33
2019-05-22T08:33:32.058Z,18.95
2019-05-22T08:36:16.415Z,17.90
2019-05-22T08:42:01.546Z,17.25
2019-05-22T08:44:45.970Z,17.02
2019-05-22T08:47:37.494Z,18.10
2019-05-22T08:50:23.557Z,17.20
2019-05-22T08:53:14.833Z,17.30
2019-05-22T08:55:58.967Z,17.47
2019-05-22T08:58:42.322Z,17.05
2019-05-22T09:01:25.731Z,14.73
2019-05-22T09:04:17.168Z,17.75
2019-05-22T09:07:00.960Z,16.70
2019-05-22T09:09:52.616Z,14.43
2019-05-22T09:12:36.867Z,17.25
2019-05-22T09:18:41.073Z,14.47
2019-05-22T09:21:32.339Z,15.65
2019-05-22T09:24:17.498Z,15.68
2019-05-22T09:27:02.850Z,14.07
2019-05-22T09:29:35.588Z,14.38
2019-05-22T09:32:19.753Z,15.40
2019-05-22T09:35:11.244Z,14.03
2019-05-22T09:37:57.464Z,15.38
2019-05-22T09:40:48.689Z,15.38
2019-05-22T09:43:34.891Z,14.20
2019-05-22T09:49:00.795Z,15.03
2019-05-22T09:51:53.842Z,13.78
2019-05-22T09:54:38.842Z,12.73
2019-05-22T09:57:30.111Z,12.20
2019-05-22T10:00:20.122Z,12.78
2019-05-22T10:02:52.406Z,11.20
2019-05-22T10:05:36.163Z,11.12
2019-05-22T10:08:27.594Z,11.35
2019-05-22T10:11:11.874Z,11.00
2019-05-22T10:17:08.878Z,11.50
2019-05-22T10:20:00.228Z,11.60
2019-05-22T10:22:46.215Z,13.70
2019-05-22T10:25:38.472Z,10.98
2019-05-22T10:28:10.742Z,11.93
2019-05-22T10:30:42.961Z,11.65
2019-05-22T10:33:26.713Z,12.30
2019-05-22T10:36:18.019Z,11.38
2019-05-22T10:39:02.400Z,12.33
2019-05-22T10:41:54.194Z,12.90
2019-05-22T10:44:38.293Z,11.08
2019-05-22T10:47:29.692Z,11.73
2019-05-22T10:50:13.997Z,11.93
2019-05-22T10:52:46.516Z,11.97
2019-05-22T10:55:31.877Z,11.60
2019-05-22T10:58:23.264Z,11.30
2019-05-22T11:01:10.446Z,10.48
2019-05-22T11:04:02.147Z,10.32
2019-05-22T11:06:46.782Z,11.35
2019-05-22T11:09:38.043Z,10.77
2019-05-22T11:12:22.272Z,12.07
2019-05-22T11:15:13.789Z,11.22
2019-05-22T11:17:58.255Z,9.90
2019-05-22T11:20:49.582Z,12.60
2019-05-22T11:23:50.410Z,11.75
2019-05-22T11:26:48.163Z,11.33
2019-05-22T11:29:32.119Z,10.90
2019-05-22T11:32:15.930Z,11.40
2019-05-22T11:38:12.467Z,9.20
2019-05-22T11:40:44.597Z,9.98
2019-05-22T11:43:30.009Z,9.00
2019-05-22T11:46:21.407Z,10.15
2019-05-22T11:49:05.498Z,9.53
2019-05-22T11:51:50.091Z,9.35
2019-05-22T11:54:41.286Z,11.22
2019-05-22T11:57:13.767Z,12.28
2019-05-22T12:00:09.240Z,13.05
2019-05-22T12:02:45.951Z,14.28
2019-05-22T12:05:38.816Z,11.93
2019-05-22T12:08:23.611Z,11.00
2019-05-22T12:10:55.965Z,10.75
2019-05-22T12:13:40.463Z,9.80
2019-05-22T12:16:31.889Z,9.08
2019-05-22T12:19:15.468Z,8.70
2019-05-22T12:22:06.744Z,9.10
2019-05-22T12:24:50.579Z,8.48
2019-05-22T12:27:22.670Z,8.90
2019-05-22T12:30:07.249Z,9.60
2019-05-22T12:38:27.288Z,7.42
2019-05-22T12:40:59.950Z,6.47
2019-05-22T12:43:45.150Z,7.70
2019-05-22T12:46:17.708Z,8.05
2019-05-22T12:49:01.624Z,9.33
2019-05-22T12:54:46.217Z,8.13
2019-05-22T12:57:49.835Z,8.80
2019-05-22T13:00:26.010Z,8.95
2019-05-22T13:06:23.929Z,9.30
2019-05-22T13:09:15.605Z,8.35
2019-05-22T13:12:06.781Z,8.53
2019-05-22T13:15:09.001Z,8.45
2019-05-22T13:17:49.638Z,9.85
2019-05-22T13:20:42.423Z,7.93
2019-05-22T13:23:27.172Z,9.45
2019-05-22T13:26:18.592Z,9.70
2019-05-22T13:29:02.087Z,9.00
2019-05-22T13:35:03.256Z,8.75
2019-05-22T13:37:54.599Z,8.63
2019-05-22T13:40:48.397Z,7.45
2019-05-22T13:43:39.857Z,8.37
2019-05-22T13:46:12.408Z,7.95
2019-05-22T13:49:04.231Z,8.78
2019-05-22T13:51:47.922Z,6.70
2019-05-22T13:57:37.636Z,7.90
2019-05-22T14:00:21.867Z,8.45
2019-05-22T14:03:06.432Z,7.15
2019-05-22T14:05:58.256Z,7.55
2019-05-22T14:08:30.455Z,7.87
2019-05-22T14:11:21.753Z,7.87
2019-05-22T14:13:54.027Z,7.30
2019-05-22T14:16:26.434Z,6.65
2019-05-22T14:19:10.663Z,7.10
2019-05-22T14:22:01.907Z,7.00
2019-05-22T14:24:45.555Z,6.00
2019-05-22T14:27:41.334Z,6.17
2019-05-22T14:30:13.198Z,6.17
2019-05-22T14:32:45.548Z,5.72
2019-05-22T14:35:48.400Z,5.62
2019-05-22T14:38:33.417Z,6.20
2019-05-22T14:41:16.986Z,5.37
2019-05-22T14:44:00.972Z,6.40
2019-05-22T14:46:52.290Z,5.53
2019-05-22T14:49:36.367Z,5.30
2019-05-22T14:52:27.521Z,7.10
2019-05-22T14:55:11.799Z,6.83
2019-05-22T14:58:14.528Z,5.55
2019-05-22T15:00:58.824Z,5.33
2019-05-22T15:03:42.605Z,6.40
2019-05-22T15:10:05.333Z,5.00
2019-05-22T15:12:37.606Z,5.22
2019-05-22T15:15:51.133Z,5.55
2019-05-22T15:18:42.377Z,6.37
2019-05-22T15:21:25.991Z,5.90
2019-05-22T15:24:17.723Z,5.80
2019-05-22T15:26:59.218Z,5.42
2019-05-22T15:29:50.357Z,5.70
2019-05-22T15:32:43.190Z,6.28
2019-05-22T15:38:45.147Z,5.83
2019-05-22T15:41:36.763Z,6.10
2019-05-22T15:44:49.039Z,6.05
2019-05-22T15:47:52.389Z,5.35
2019-05-22T15:50:19.568Z,6.37
2019-05-22T15:53:32.008Z,6.15
2019-05-22T15:59:49.214Z,6.50
2019-05-22T16:02:34.564Z,7.15
2019-05-22T16:05:20.752Z,7.45
2019-05-22T16:08:12.418Z,6.92
2019-05-22T16:17:25.257Z,6.05
2019-05-22T16:19:57.340Z,5.55
2019-05-22T16:22:48.964Z,5.47
2019-05-22T16:25:33.459Z,7.40
2019-05-22T16:28:24.873Z,6.28
2019-05-22T16:31:09.027Z,6.22
2019-05-22T16:34:00.749Z,6.42
2019-05-22T16:36:46.274Z,5.72
2019-05-22T16:39:32.200Z,6.40
2019-05-22T16:42:16.808Z,5.62
2019-05-22T16:45:08.897Z,5.60
2019-05-22T16:47:54.325Z,6.08
2019-05-22T16:50:45.791Z,5.10
2019-05-22T16:53:31.536Z,4.53
2019-05-22T16:56:23.731Z,5.60
2019-05-22T16:59:08.869Z,5.20
2019-05-22T17:02:00.887Z,5.70
2019-05-22T17:04:53.611Z,5.28
2019-05-22T17:07:48.839Z,5.35
2019-05-22T17:10:40.758Z,5.30
2019-05-22T17:13:39.449Z,5.35
2019-05-22T17:19:26.449Z,5.97
2019-05-22T17:25:21.824Z,5.58
2019-05-22T17:28:07.598Z,5.55
2019-05-22T17:30:59.202Z,5.45
2019-05-22T17:33:43.413Z,5.10
2019-05-22T17:36:31.887Z,5.72
2019-05-22T17:42:10.703Z,5.65
2019-05-22T17:48:10.120Z,5.65
2019-05-22T17:51:01.526Z,5.47
2019-05-22T17:53:48.009Z,6.00
2019-05-22T17:59:42.016Z,6.05
2019-05-22T18:02:33.945Z,6.28
2019-05-22T18:08:48.145Z,6.62
2019-05-22T18:11:33.377Z,5.87
2019-05-22T18:14:26.482Z,6.42
2019-05-22T18:17:11.005Z,5.90
2019-05-22T18:20:03.035Z,5.40
2019-05-22T18:22:48.965Z,6.20
2019-05-22T18:28:49.636Z,5.78
2019-05-22T18:31:42.223Z,5.37
2019-05-22T18:34:27.318Z,6.20
2019-05-22T18:37:18.656Z,6.03
2019-05-22T18:40:04.249Z,5.45
2019-05-22T18:42:55.639Z,6.20
2019-05-22T18:45:41.662Z,5.53
2019-05-22T18:48:33.363Z,5.60
2019-05-22T18:51:40.016Z,5.55
2019-05-22T18:54:12.454Z,5.78
2019-05-22T18:56:57.411Z,6.10
2019-05-22T18:59:31.046Z,7.40
2019-05-22T19:02:14.679Z,6.80
2019-05-22T19:05:06.450Z,8.63
2019-05-22T19:07:51.525Z,7.37
2019-05-22T19:10:43.738Z,6.95
2019-05-22T19:13:35.166Z,6.60
2019-05-22T19:16:08.426Z,6.65
2019-05-22T19:18:59.637Z,7.75
2019-05-22T19:21:43.461Z,7.62
2019-05-22T19:24:17.262Z,7.20
2019-05-22T19:27:00.651Z,9.60
2019-05-22T19:29:51.956Z,8.25
2019-05-22T19:35:41.325Z,8.05
2019-05-22T19:38:26.796Z,7.25
2019-05-22T19:41:18.297Z,8.35
2019-05-22T19:44:11.528Z,8.00
2019-05-22T19:46:43.855Z,7.58
2019-05-22T19:49:28.125Z,7.53
2019-05-22T19:56:04.847Z,7.90
2019-05-22T19:58:50.184Z,9.10
2019-05-22T20:01:40.399Z,8.58
2019-05-22T20:07:21.827Z,8.45
2019-05-22T20:10:07.411Z,8.58
2019-05-22T20:12:51.703Z,8.55
2019-05-22T20:15:43.265Z,9.08
2019-05-22T20:18:16.059Z,8.95
2019-05-22T20:21:07.611Z,8.83
2019-05-22T20:23:53.089Z,10.88
2019-05-22T20:26:44.755Z,9.50
2019-05-22T20:29:56.881Z,11.22
2019-05-22T20:35:58.883Z,9.83
2019-05-22T20:38:31.755Z,9.70
2019-05-22T20:41:16.221Z,9.98
2019-05-22T20:44:01.282Z,9.68
2019-05-22T20:46:53.319Z,11.20
2019-05-22T20:49:38.281Z,10.88
2019-05-22T20:52:50.583Z,10.70
2019-05-22T20:55:34.312Z,11.60
2019-05-22T20:58:26.475Z,11.30
2019-05-22T21:01:12.706Z,11.33
2019-05-22T21:07:15.871Z,11.38
2019-05-22T21:09:48.083Z,10.60
2019-05-22T21:12:35.512Z,12.18
2019-05-22T21:15:17.122Z,11.28
2019-05-22T21:18:00.727Z,10.85
2019-05-22T21:20:55.384Z,10.88
2019-05-22T21:26:38.696Z,11.45
2019-05-22T21:29:22.894Z,11.30
2019-05-22T21:35:33.610Z,11.40
2019-05-22T21:38:19.547Z,10.50
2019-05-22T21:41:11.421Z,10.80
2019-05-22T21:43:55.493Z,11.83
2019-05-22T21:46:47.310Z,11.08
2019-05-22T21:49:19.565Z,12.20
2019-05-22T21:52:11.494Z,11.88
2019-05-22T21:54:56.857Z,12.85
2019-05-22T21:57:29.087Z,11.10
2019-05-22T22:06:40.071Z,13.03
2019-05-22T22:09:26.288Z,12.65
2019-05-22T22:12:38.739Z,12.20
2019-05-22T22:15:24.242Z,11.60
2019-05-22T22:18:15.962Z,11.65
2019-05-22T22:21:00.274Z,12.10
2019-05-22T22:23:53.202Z,12.60
2019-05-22T22:26:37.393Z,11.43
2019-05-22T22:29:21.611Z,12.07
2019-05-22T22:32:10.518Z,11.37
2019-05-22T22:35:01.112Z,11.45
2019-05-22T22:37:47.158Z,10.90
2019-05-22T22:43:45.039Z,11.60
2019-05-22T22:50:13.227Z,11.78
2019-05-22T22:52:57.502Z,10.40
2019-05-22T22:55:43.195Z,10.80
2019-05-22T22:58:34.570Z,12.33
2019-05-22T23:01:23.250Z,12.65
2019-05-22T23:04:35.354Z,12.00
2019-05-22T23:07:20.682Z,12.30
2019-05-22T23:13:50.847Z,12.03
2019-05-22T23:16:35.993Z,12.30
2019-05-22T23:22:44.965Z,13.00
2019-05-22T23:25:29.271Z,10.90
2019-05-22T23:28:13.724Z,11.80
2019-05-22T23:31:05.276Z,10.70
2019-05-22T23:37:01.054Z,10.90
2019-05-22T23:39:48.066Z,11.95
2019-05-22T23:42:33.656Z,11.60
2019-05-22T23:45:20.103Z,11.80
2019-05-22T23:48:17.445Z,10.98
2019-05-22T23:50:50.206Z,11.00
2019-05-22T23:56:36.655Z,11.45
